Aviation Digital Data Service (ADDS)

Output produced by METARs form (1631 UTC 19 October 2017)
found at http://aviationweather.gov/adds/metars/
 
KAEX 191553Z 11006KT 10SM CLR 23/13 A3022 RMK AO2 SLP235 T02280128